Time;durP1;ratioP1;P1;durP2;ratioP2;P2;SDS_P1;SDS_P2;PMS_P1;PMS_P2;Temp;Humidity;BMP_temperature;BMP_pressure;BME280_temperature;BME280_humidity;BME280_pressure;Samples;Min_cycle;Max_cycle;Signal;HPM_P1;HPM_P2
2023/05/23 00:02:22;;;;;;;;;;;;;;;14.55;100.00;101262.47;5058962;28;19938;-72
2023/05/23 00:04:48;;;;;;;;;;;;;;;14.46;100.00;101271.19;5062926;28;20082;-73
2023/05/23 00:07:13;;;;;;;;;;;;;;;14.40;99.75;101266.88;5065085;28;19940;-72
2023/05/23 00:09:38;;;;;;;;;;;;;;;14.37;99.82;101258.56;5060211;28;19933;-71
2023/05/23 00:12:04;;;;;;;;;;;;;;;14.34;100.00;101262.63;5046902;28;20447;-70
2023/05/23 00:14:32;;;;;;;;;;;;;;;14.30;99.90;101266.19;5034715;28;20031;-73
2023/05/23 00:16:59;;;;;;;;;;;;;;;14.43;100.00;101260.94;5058802;28;19953;-72
2023/05/23 00:19:24;;;;;;;;;;;;;;;14.39;100.00;101259.88;5063487;28;19941;-73
2023/05/23 00:21:52;;;;;;;;;;;;;;;14.38;100.00;101249.41;5060576;28;19942;-73
2023/05/23 00:24:19;;;;;;;;;;;;;;;14.33;100.00;101250.22;5057485;28;20426;-72
2023/05/23 00:26:45;;;;;;;;;;;;;;;14.26;100.00;101244.38;5062494;28;19955;-71
2023/05/23 00:29:15;;;;;;;;;;;;;;;14.17;99.99;101238.78;5058897;28;19938;-72
2023/05/23 00:31:47;;;;;;;;;;;;;;;14.12;100.00;101235.31;5059385;28;19931;-72
2023/05/23 00:34:13;;;;;;;;;;;;;;;14.09;100.00;101241.25;5043601;28;20395;-72
2023/05/23 00:36:40;;;;;;;;;;;;;;;14.09;100.00;101235.88;5051053;28;19954;-71
2023/05/23 00:39:07;;;;;;;;;;;;;;;14.00;100.00;101248.34;5066195;28;19942;-75
2023/05/23 00:41:32;;;;;;;;;;;;;;;13.95;100.00;101241.09;5060262;28;19935;-75
2023/05/23 00:43:58;;;;;;;;;;;;;;;13.88;100.00;101241.41;5032998;28;19937;-74
2023/05/23 00:46:25;;;;;;;;;;;;;;;13.82;100.00;101234.47;5042920;28;20458;-75
2023/05/23 00:48:53;;;;;;;;;;;;;;;13.81;100.00;101238.22;5043087;28;20175;-72
2023/05/23 00:51:19;;;;;;;;;;;;;;;13.76;100.00;101232.09;5060751;28;19981;-73
2023/05/23 00:53:45;;;;;;;;;;;;;;;13.67;100.00;101221.06;5066642;28;20376;-71
2023/05/23 00:56:11;;;;;;;;;;;;;;;13.64;100.00;101232.41;5066599;28;19961;-73
2023/05/23 00:58:38;;;;;;;;;;;;;;;13.54;100.00;101224.38;5064511;28;20032;-74
2023/05/23 01:01:03;;;;;;;;;;;;;;;13.47;100.00;101213.13;5045718;28;19986;-73
2023/05/23 01:03:29;;;;;;;;;;;;;;;13.48;100.00;101220.09;5063485;28;19970;-74
2023/05/23 01:05:55;;;;;;;;;;;;;;;13.46;100.00;101219.59;5047824;28;19959;-73
2023/05/23 01:08:21;;;;;;;;;;;;;;;13.44;100.00;101224.44;5062809;28;19973;-74
2023/05/23 01:10:47;;;;;;;;;;;;;;;13.39;100.00;101223.38;5051943;28;20516;-74
2023/05/23 01:13:22;;;;;;;;;;;;;;;13.42;100.00;101215.84;5059293;28;20039;-74
2023/05/23 01:16:01;;;;;;;;;;;;;;;13.46;100.00;101222.28;5078187;28;20012;-74
2023/05/23 01:18:40;;;;;;;;;;;;;;;13.52;100.00;101218.47;5057374;28;19981;-73
2023/05/23 01:21:08;;;;;;;;;;;;;;;13.62;100.00;101208.47;5044787;28;20669;-76
2023/05/23 01:23:54;;;;;;;;;;;;;;;13.78;100.00;101208.38;5057339;28;20352;-73
2023/05/23 01:26:26;;;;;;;;;;;;;;;13.89;100.00;101208.03;5028527;28;20317;-74
2023/05/23 01:28:58;;;;;;;;;;;;;;;13.96;100.00;101204.22;5041083;28;19936;-74
2023/05/23 01:31:28;;;;;;;;;;;;;;;14.05;100.00;101207.91;5056475;28;20375;-74
2023/05/23 01:33:54;;;;;;;;;;;;;;;14.11;100.00;101202.19;5064614;28;20482;-72
2023/05/23 01:36:20;;;;;;;;;;;;;;;14.14;100.00;101198.13;5044700;28;20447;-72
2023/05/23 01:38:45;;;;;;;;;;;;;;;14.17;100.00;101206.47;5057981;28;19964;-73
2023/05/23 01:41:11;;;;;;;;;;;;;;;14.19;100.00;101200.78;5055681;28;19990;-73
2023/05/23 01:43:40;;;;;;;;;;;;;;;14.20;100.00;101199.69;5057057;28;20304;-72
2023/05/23 01:46:06;;;;;;;;;;;;;;;14.22;100.00;101202.91;5056805;28;20052;-72
2023/05/23 01:48:32;;;;;;;;;;;;;;;14.26;100.00;101197.78;5062994;28;20384;-72
2023/05/23 01:50:58;;;;;;;;;;;;;;;14.29;100.00;101207.97;5061936;28;19938;-73
2023/05/23 01:53:25;;;;;;;;;;;;;;;14.33;100.00;101204.44;5060787;28;19938;-73
2023/05/23 01:55:51;;;;;;;;;;;;;;;14.39;100.00;101211.38;5059628;28;20055;-75
2023/05/23 01:58:20;;;;;;;;;;;;;;;14.45;100.00;101207.56;5060850;28;19938;-74
2023/05/23 02:00:46;;;;;;;;;;;;;;;14.45;100.00;101210.25;5056308;28;20021;-73
2023/05/23 02:03:11;;;;;;;;;;;;;;;14.45;100.00;101214.84;5034666;28;19969;-73
2023/05/23 02:05:40;;;;;;;;;;;;;;;14.35;99.88;101204.94;5058770;28;19951;-73
2023/05/23 02:08:05;;;;;;;;;;;;;;;14.20;99.29;101208.59;5060596;28;19964;-72
2023/05/23 02:10:31;;;;;;;;;;;;;;;14.17;100.00;101211.06;5045785;28;20294;-73
2023/05/23 02:12:59;;;;;;;;;;;;;;;14.17;100.00;101216.44;5061626;28;19935;-74
2023/05/23 02:15:28;;;;;;;;;;;;;;;14.12;99.72;101217.28;5047000;28;20037;-73
2023/05/23 02:17:56;;;;;;;;;;;;;;;14.08;99.62;101213.53;5063707;28;19938;-74
2023/05/23 02:20:22;;;;;;;;;;;;;;;13.98;98.28;101218.19;5060969;28;19933;-76
2023/05/23 02:22:47;;;;;;;;;;;;;;;13.94;99.02;101224.13;5063909;28;20022;-73
2023/05/23 02:25:14;;;;;;;;;;;;;;;13.94;98.90;101223.31;5049492;28;19957;-73
2023/05/23 02:27:40;;;;;;;;;;;;;;;13.90;99.29;101223.09;5050379;28;19990;-74
2023/05/23 02:30:05;;;;;;;;;;;;;;;13.92;99.61;101215.53;5059246;28;19983;-72
2023/05/23 02:32:31;;;;;;;;;;;;;;;13.84;99.63;101223.41;5047621;28;19943;-72
2023/05/23 02:34:57;;;;;;;;;;;;;;;13.86;99.32;101221.22;5068700;28;19935;-72
2023/05/23 02:37:22;;;;;;;;;;;;;;;13.87;99.62;101218.25;5057489;28;20061;-72
2023/05/23 02:39:48;;;;;;;;;;;;;;;13.82;99.50;101231.78;5048343;28;19950;-73
2023/05/23 02:42:14;;;;;;;;;;;;;;;13.81;99.46;101218.56;5060404;28;20357;-72
2023/05/23 02:44:39;;;;;;;;;;;;;;;13.87;99.58;101233.59;5061262;28;19930;-73
2023/05/23 02:47:05;;;;;;;;;;;;;;;13.73;99.57;101222.66;5060638;28;20343;-73
2023/05/23 02:49:32;;;;;;;;;;;;;;;13.70;98.81;101217.03;5033246;28;20454;-73
2023/05/23 02:51:57;;;;;;;;;;;;;;;13.69;99.21;101218.13;5056885;28;19934;-74
2023/05/23 02:54:23;;;;;;;;;;;;;;;13.60;99.13;101213.31;5064212;28;19972;-73
2023/05/23 02:56:51;;;;;;;;;;;;;;;13.60;99.11;101223.28;5048524;28;19965;-73
2023/05/23 02:59:16;;;;;;;;;;;;;;;13.60;99.41;101223.28;5060318;28;19964;-73
2023/05/23 03:01:42;;;;;;;;;;;;;;;13.65;98.91;101228.63;5065893;28;19937;-72
2023/05/23 03:04:12;;;;;;;;;;;;;;;13.59;98.93;101227.06;5064262;28;19932;-74
2023/05/23 03:06:38;;;;;;;;;;;;;;;13.58;99.28;101228.13;5054189;28;21229;-74
2023/05/23 03:09:04;;;;;;;;;;;;;;;13.53;98.75;101223.56;5061857;28;19931;-72
2023/05/23 03:11:30;;;;;;;;;;;;;;;13.58;99.26;101220.06;5049870;28;19938;-72
2023/05/23 03:13:58;;;;;;;;;;;;;;;13.56;99.12;101222.22;5063860;28;20014;-73
2023/05/23 03:16:23;;;;;;;;;;;;;;;13.51;99.59;101219.56;5063088;28;20497;-73
2023/05/23 03:18:49;;;;;;;;;;;;;;;13.52;99.35;101237.31;5062221;28;20078;-74
2023/05/23 03:21:16;;;;;;;;;;;;;;;13.52;98.81;101232.72;5032239;28;20310;-73
2023/05/23 03:23:41;;;;;;;;;;;;;;;13.49;98.69;101233.31;5044573;28;19933;-73
2023/05/23 03:26:09;;;;;;;;;;;;;;;13.51;99.28;101224.94;5060924;28;19950;-71
2023/05/23 03:28:35;;;;;;;;;;;;;;;13.47;99.73;101231.94;5061740;28;19942;-73
2023/05/23 03:31:01;;;;;;;;;;;;;;;13.44;99.37;101224.44;5060757;28;20305;-72
2023/05/23 03:33:26;;;;;;;;;;;;;;;13.44;99.26;101225.25;5067756;28;19930;-72
2023/05/23 03:35:52;;;;;;;;;;;;;;;13.44;99.49;101224.44;5033912;28;19980;-72
2023/05/23 03:38:18;;;;;;;;;;;;;;;13.42;99.34;101221.22;5047139;28;20432;-72
2023/05/23 03:40:43;;;;;;;;;;;;;;;13.39;99.39;101223.38;5066692;28;19929;-74
2023/05/23 03:43:08;;;;;;;;;;;;;;;13.45;99.42;101220.66;5054254;28;19939;-71
2023/05/23 03:45:37;;;;;;;;;;;;;;;13.42;99.05;101229.31;5066788;28;19963;-74
2023/05/23 03:48:08;;;;;;;;;;;;;;;13.37;98.88;101228.25;5048154;28;20023;-71
2023/05/23 03:50:34;;;;;;;;;;;;;;;13.37;99.15;101220.16;5065753;28;19965;-71
2023/05/23 03:53:00;;;;;;;;;;;;;;;13.34;99.06;101215.34;5067361;28;19942;-74
2023/05/23 03:55:26;;;;;;;;;;;;;;;13.37;99.09;101214.78;5059869;28;20038;-73
2023/05/23 03:57:51;;;;;;;;;;;;;;;13.35;98.78;101227.72;5064504;28;19934;-73
2023/05/23 04:00:18;;;;;;;;;;;;;;;13.34;98.57;101223.44;5035452;28;19940;-71
2023/05/23 04:02:45;;;;;;;;;;;;;;;13.29;98.13;101220.75;5066178;28;19926;-71
2023/05/23 04:05:12;;;;;;;;;;;;;;;13.35;97.91;101237.69;5066300;28;19956;-73
2023/05/23 04:07:40;;;;;;;;;;;;;;;13.36;98.74;101221.25;5049904;28;19944;-73
2023/05/23 04:10:06;;;;;;;;;;;;;;;13.35;99.12;101218.84;5065161;28;19942;-72
2023/05/23 04:12:32;;;;;;;;;;;;;;;13.36;99.43;101240.09;5050501;28;20052;-72
2023/05/23 04:14:58;;;;;;;;;;;;;;;13.33;99.48;101235.25;5048322;28;19945;-74
2023/05/23 04:17:23;;;;;;;;;;;;;;;13.32;99.62;101235.53;5062578;28;20055;-72
2023/05/23 04:19:50;;;;;;;;;;;;;;;13.29;99.45;101234.19;5046715;28;19937;-71
2023/05/23 04:22:15;;;;;;;;;;;;;;;13.26;99.50;101237.41;5046072;28;20493;-74
2023/05/23 04:24:42;;;;;;;;;;;;;;;13.34;99.63;101241.41;5059723;28;20032;-72
2023/05/23 04:27:08;;;;;;;;;;;;;;;13.33;99.71;101237.94;5062829;28;19954;-72
2023/05/23 04:29:35;;;;;;;;;;;;;;;13.31;99.91;101241.97;5066936;28;19944;-75
2023/05/23 04:32:01;;;;;;;;;;;;;;;13.23;99.72;101240.69;5061409;28;19940;-72
2023/05/23 04:34:27;;;;;;;;;;;;;;;13.29;99.37;101250.34;5040044;28;19936;-74
2023/05/23 04:36:53;;;;;;;;;;;;;;;13.23;98.93;101246.06;5059351;28;20105;-73
2023/05/23 04:39:19;;;;;;;;;;;;;;;13.22;99.15;101238.25;5031595;28;19937;-71
2023/05/23 04:42:06;;;;;;;;;;;;;;;13.13;99.30;101235.28;5064678;28;20316;-74
2023/05/23 04:44:57;;;;;;;;;;;;;;;13.14;99.72;101242.31;5056625;28;19935;-73
2023/05/23 04:47:43;;;;;;;;;;;;;;;13.12;99.55;101242.56;5057690;28;19933;-74
2023/05/23 04:50:15;;;;;;;;;;;;;;;13.13;99.54;101249.53;5065563;28;19986;-74
2023/05/23 04:52:41;;;;;;;;;;;;;;;13.12;98.94;101249.81;5044666;28;19938;-72
2023/05/23 04:55:08;;;;;;;;;;;;;;;13.06;99.23;101242.84;5058189;28;19934;-73
2023/05/23 04:57:34;;;;;;;;;;;;;;;13.11;98.95;101245.53;5050818;28;20322;-72
2023/05/23 05:00:02;;;;;;;;;;;;;;;13.11;98.06;101245.53;5051195;28;19937;-73
2023/05/23 05:02:33;;;;;;;;;;;;;;;13.15;98.23;101238.53;5031517;28;19940;-71
2023/05/23 05:05:00;;;;;;;;;;;;;;;13.10;97.94;101241.22;5063528;28;20376;-72
2023/05/23 05:07:25;;;;;;;;;;;;;;;13.21;98.53;101248.22;5044841;28;19957;-73
2023/05/23 05:09:51;;;;;;;;;;;;;;;13.19;98.13;101252.22;5049207;28;19958;-73
2023/05/23 05:12:17;;;;;;;;;;;;;;;13.18;98.13;101254.09;5046471;28;20373;-73
2023/05/23 05:14:46;;;;;;;;;;;;;;;13.22;98.24;101259.78;5044229;28;19942;-71
2023/05/23 05:17:12;;;;;;;;;;;;;;;13.15;97.91;101262.72;5047775;28;19957;-71
2023/05/23 05:19:48;;;;;;;;;;;;;;;13.11;97.78;101264.34;5064356;28;19931;-72
2023/05/23 05:22:14;;;;;;;;;;;;;;;13.12;98.11;101257.88;5050044;28;19991;-74
2023/05/23 05:24:42;;;;;;;;;;;;;;;13.16;98.15;101250.09;5061245;28;19936;-74
2023/05/23 05:27:10;;;;;;;;;;;;;;;13.17;98.62;101257.06;5057242;28;19952;-72
2023/05/23 05:29:36;;;;;;;;;;;;;;;13.18;98.49;101259.47;5048741;28;19954;-72
2023/05/23 05:32:02;;;;;;;;;;;;;;;13.17;98.33;101257.06;5047135;28;19953;-71
2023/05/23 05:34:28;;;;;;;;;;;;;;;13.13;98.48;101260.28;5062290;28;20028;-74
2023/05/23 05:36:55;;;;;;;;;;;;;;;13.14;98.67;101253.06;5058110;28;20005;-72
2023/05/23 05:39:23;;;;;;;;;;;;;;;13.12;98.69;101257.88;5058759;28;19938;-72
2023/05/23 05:41:48;;;;;;;;;;;;;;;13.16;98.79;101258.97;5060201;28;19981;-74
2023/05/23 05:44:14;;;;;;;;;;;;;;;13.18;99.20;101258.69;5049015;28;20410;-74
2023/05/23 05:46:40;;;;;;;;;;;;;;;13.18;99.33;101261.38;5026154;28;20050;-73
2023/05/23 05:49:06;;;;;;;;;;;;;;;13.15;99.17;101259.25;5061982;28;20397;-72
2023/05/23 05:51:32;;;;;;;;;;;;;;;13.12;99.30;101260.56;5058360;28;19933;-72
2023/05/23 05:53:58;;;;;;;;;;;;;;;13.18;99.03;101253.28;5047188;28;20282;-71
2023/05/23 05:56:24;;;;;;;;;;;;;;;13.19;99.55;101260.28;5042478;28;19952;-71
2023/05/23 05:58:50;;;;;;;;;;;;;;;13.14;99.07;101255.75;5066853;28;19931;-71
2023/05/23 06:01:16;;;;;;;;;;;;;;;13.20;99.71;101262.72;5045364;28;19933;-73
2023/05/23 06:03:42;;;;;;;;;;;;;;;13.18;99.72;101270.25;5045528;28;19938;-73
2023/05/23 06:06:09;;;;;;;;;;;;;;;13.22;99.42;101257.09;5056010;28;19943;-73
2023/05/23 06:08:37;;;;;;;;;;;;;;;13.31;99.74;101264.31;5032304;28;20425;-73
2023/05/23 06:11:02;;;;;;;;;;;;;;;13.37;99.15;101267.78;5032117;28;19970;-71
2023/05/23 06:13:29;;;;;;;;;;;;;;;13.49;99.34;101267.47;5028094;28;19929;-71
2023/05/23 06:15:54;;;;;;;;;;;;;;;13.52;99.34;101275.78;5058118;28;19950;-74
2023/05/23 06:18:21;;;;;;;;;;;;;;;13.60;98.80;101275.22;5047246;28;20412;-73
2023/05/23 06:20:47;;;;;;;;;;;;;;;13.69;98.79;101272.75;5062474;28;19938;-73
2023/05/23 06:23:15;;;;;;;;;;;;;;;13.79;98.56;101277.28;5045719;28;19932;-71
2023/05/23 06:25:40;;;;;;;;;;;;;;;13.78;97.10;101268.41;5046044;28;19951;-72
2023/05/23 06:28:06;;;;;;;;;;;;;;;13.93;97.70;101272.88;5046871;28;19932;-74
2023/05/23 06:30:34;;;;;;;;;;;;;;;14.00;97.23;101277.94;5030913;28;20022;-72
2023/05/23 06:33:00;;;;;;;;;;;;;;;13.98;97.10;101274.75;5049765;28;20391;-72
2023/05/23 06:35:26;;;;;;;;;;;;;;;13.94;97.82;101277.19;5059705;28;20003;-75
2023/05/23 06:37:51;;;;;;;;;;;;;;;13.84;96.91;101280.75;5063073;28;20425;-73
2023/05/23 06:40:17;;;;;;;;;;;;;;;13.86;97.74;101283.97;5063507;28;20030;-72
2023/05/23 06:42:43;;;;;;;;;;;;;;;13.83;97.60;101281.84;5057337;28;19935;-72
2023/05/23 06:45:33;;;;;;;;;;;;;;;13.86;97.77;101285.84;5059233;28;19953;-73
2023/05/23 06:48:00;;;;;;;;;;;;;;;13.90;97.67;101279.63;5047798;28;20037;-71
2023/05/23 06:50:25;;;;;;;;;;;;;;;13.75;97.78;101290.50;5047116;28;20027;-73
2023/05/23 06:52:52;;;;;;;;;;;;;;;13.64;98.18;101294.31;5049917;28;19952;-72
2023/05/23 06:55:18;;;;;;;;;;;;;;;13.67;98.64;101299.13;5056125;28;19951;-72
2023/05/23 06:57:46;;;;;;;;;;;;;;;13.63;98.78;101293.50;5061812;28;20359;-76
2023/05/23 07:00:15;;;;;;;;;;;;;;;13.59;99.41;101288.94;5034356;28;20067;-71
2023/05/23 07:02:54;;;;;;;;;;;;;;;13.55;99.37;101298.66;5059570;28;20312;-72
2023/05/23 07:05:20;;;;;;;;;;;;;;;13.58;99.79;101298.09;5046077;28;19949;-73
2023/05/23 07:07:49;;;;;;;;;;;;;;;13.60;99.10;101298.63;5062904;28;19939;-72
2023/05/23 07:10:15;;;;;;;;;;;;;;;13.65;99.50;101317.44;5047545;28;20400;-71
2023/05/23 07:12:40;;;;;;;;;;;;;;;13.63;99.38;101309.66;5068280;28;19939;-72
2023/05/23 07:15:07;;;;;;;;;;;;;;;13.68;99.71;101308.00;5050906;28;19971;-73
2023/05/23 07:17:38;;;;;;;;;;;;;;;13.75;99.73;101305.81;5061884;28;19958;-73
2023/05/23 07:20:07;;;;;;;;;;;;;;;13.67;98.97;101304.50;5059846;28;19932;-72
2023/05/23 07:22:35;;;;;;;;;;;;;;;13.60;98.92;101309.38;5049382;28;20017;-72
2023/05/23 07:25:01;;;;;;;;;;;;;;;13.69;99.06;101315.03;5061479;28;20067;-73
2023/05/23 07:27:30;;;;;;;;;;;;;;;13.49;98.12;101318.59;5036725;28;19942;-72
2023/05/23 07:29:56;;;;;;;;;;;;;;;13.51;98.83;101321.81;5060892;28;20402;-73
2023/05/23 07:32:22;;;;;;;;;;;;;;;13.49;98.44;101319.41;5049337;28;20273;-74
2023/05/23 07:34:48;;;;;;;;;;;;;;;13.49;98.75;101322.09;5050344;28;20390;-73
2023/05/23 07:37:13;;;;;;;;;;;;;;;13.45;97.59;101330.97;5066639;28;19953;-71
2023/05/23 07:39:43;;;;;;;;;;;;;;;13.42;96.95;101324.28;5061313;28;19946;-74
2023/05/23 07:42:08;;;;;;;;;;;;;;;13.29;96.54;101336.41;5053248;28;19933;-72
2023/05/23 07:44:34;;;;;;;;;;;;;;;13.32;96.46;101341.22;5063687;28;19929;-77
2023/05/23 07:47:00;;;;;;;;;;;;;;;13.27;96.07;101343.13;5053271;28;19960;-72
2023/05/23 07:49:26;;;;;;;;;;;;;;;13.33;96.09;101352.78;5048977;28;20321;-73
2023/05/23 07:51:52;;;;;;;;;;;;;;;13.51;96.27;101348.72;5065219;28;19934;-73
2023/05/23 07:54:18;;;;;;;;;;;;;;;13.64;94.62;101353.53;5048350;28;19942;-72
2023/05/23 07:56:44;;;;;;;;;;;;;;;13.71;94.63;101351.34;5052396;28;19963;-72
2023/05/23 07:59:10;;;;;;;;;;;;;;;13.73;92.55;101349.16;5060644;28;19931;-72
2023/05/23 08:01:36;;;;;;;;;;;;;;;13.82;92.70;101355.59;5047871;28;19936;-72
2023/05/23 08:04:05;;;;;;;;;;;;;;;13.92;93.81;101355.53;5063555;28;19939;-71
2023/05/23 08:06:36;;;;;;;;;;;;;;;13.74;93.36;101364.22;5062126;28;19965;-72
2023/05/23 08:09:05;;;;;;;;;;;;;;;13.83;93.83;101362.59;5062937;28;20002;-72
2023/05/23 08:11:52;;;;;;;;;;;;;;;13.88;93.58;101365.25;5053938;28;19983;-74
2023/05/23 08:14:18;;;;;;;;;;;;;;;14.09;92.14;101378.63;5065877;28;19931;-73
2023/05/23 08:17:05;;;;;;;;;;;;;;;14.07;92.14;101368.13;5061882;28;19973;-71
2023/05/23 08:19:30;;;;;;;;;;;;;;;14.12;92.29;101375.38;5065844;28;19928;-72
2023/05/23 08:21:55;;;;;;;;;;;;;;;13.89;91.27;101371.47;5071389;28;20485;-72
2023/05/23 08:24:21;;;;;;;;;;;;;;;13.86;91.15;101391.66;5053618;28;19934;-74
2023/05/23 08:26:48;;;;;;;;;;;;;;;13.89;90.49;101388.41;5068243;28;19952;-74
2023/05/23 08:29:14;;;;;;;;;;;;;;;13.65;91.27;101392.81;5048064;28;20787;-72
2023/05/23 08:31:41;;;;;;;;;;;;;;;13.70;93.07;101392.81;5067395;28;20023;-71
2023/05/23 08:34:07;;;;;;;;;;;;;;;13.62;92.27;101409.53;5047869;28;20302;-75
2023/05/23 08:36:35;;;;;;;;;;;;;;;13.61;90.92;101402.50;5064115;28;20445;-73
2023/05/23 08:39:01;;;;;;;;;;;;;;;13.62;90.55;101396.06;5033676;28;20003;-74
2023/05/23 08:41:30;;;;;;;;;;;;;;;13.97;91.85;101405.09;5047249;28;19940;-74
2023/05/23 08:44:01;;;;;;;;;;;;;;;14.11;89.96;101403.41;5068920;28;20020;-73
2023/05/23 08:46:32;;;;;;;;;;;;;;;14.25;85.99;101411.69;5060812;28;19999;-71
2023/05/23 08:48:59;;;;;;;;;;;;;;;14.46;88.12;101407.81;5062330;28;20422;-75
2023/05/23 08:51:26;;;;;;;;;;;;;;;14.33;87.29;101411.91;5037649;28;19933;-71
2023/05/23 08:53:55;;;;;;;;;;;;;;;14.42;86.71;101415.59;5050383;28;19938;-71
2023/05/23 08:56:24;;;;;;;;;;;;;;;14.43;87.64;101425.31;5060984;28;19967;-74
2023/05/23 08:58:52;;;;;;;;;;;;;;;14.04;89.52;101427.13;5031893;28;20029;-71
2023/05/23 09:01:22;;;;;;;;;;;;;;;13.88;90.72;101429.06;5061378;28;20091;-74
2023/05/23 09:03:54;;;;;;;;;;;;;;;13.56;91.04;101432.94;5067498;28;19934;-71
2023/05/23 09:06:26;;;;;;;;;;;;;;;13.55;92.08;101435.91;5046915;28;19993;-73
2023/05/23 09:08:52;;;;;;;;;;;;;;;13.41;91.72;101434.84;5066411;28;19934;-74
2023/05/23 09:11:20;;;;;;;;;;;;;;;13.44;91.79;101450.44;5029851;28;19986;-72
2023/05/23 09:13:50;;;;;;;;;;;;;;;13.17;92.72;101448.00;5054138;28;19939;-71
2023/05/23 09:16:17;;;;;;;;;;;;;;;13.19;94.91;101451.22;5035447;28;19961;-72
2023/05/23 09:18:54;;;;;;;;;;;;;;;13.18;95.31;101458.50;5051251;28;19954;-72
2023/05/23 09:21:23;;;;;;;;;;;;;;;13.11;93.65;101468.72;5056681;28;19933;-74
2023/05/23 09:24:04;;;;;;;;;;;;;;;12.86;94.14;101472.19;5055285;28;19938;-72
2023/05/23 09:26:30;;;;;;;;;;;;;;;12.85;94.36;101484.81;5056981;28;20408;-74
2023/05/23 09:29:04;;;;;;;;;;;;;;;12.74;95.21;101477.03;5053165;28;19931;-73
2023/05/23 09:31:30;;;;;;;;;;;;;;;12.64;95.24;101488.53;5070550;28;20322;-72
2023/05/23 09:33:56;;;;;;;;;;;;;;;12.66;95.86;101499.81;5052637;28;19946;-72
2023/05/23 09:36:22;;;;;;;;;;;;;;;12.46;95.82;101502.44;5084435;28;20501;-73
2023/05/23 09:38:48;;;;;;;;;;;;;;;12.33;95.67;101505.63;5067753;28;20421;-72
2023/05/23 09:41:13;;;;;;;;;;;;;;;12.24;95.64;101508.81;5062119;28;19938;-73
2023/05/23 09:43:48;;;;;;;;;;;;;;;12.26;96.34;101513.91;5037483;28;19943;-73
2023/05/23 09:46:14;;;;;;;;;;;;;;;12.32;96.00;101520.13;5066826;28;19964;-72
2023/05/23 09:48:45;;;;;;;;;;;;;;;12.24;96.02;101519.56;5068113;28;19933;-72
2023/05/23 09:51:10;;;;;;;;;;;;;;;12.19;96.04;101527.59;5053922;28;19969;-74
2023/05/23 09:53:36;;;;;;;;;;;;;;;12.14;96.14;101527.56;5069882;28;19976;-72
2023/05/23 09:56:02;;;;;;;;;;;;;;;12.20;96.43;101533.78;5087945;28;20013;-72
2023/05/23 09:58:29;;;;;;;;;;;;;;;12.10;95.91;101526.47;5050509;28;19936;-73
2023/05/23 10:01:01;;;;;;;;;;;;;;;12.01;95.79;101525.34;5051525;28;19943;-74
2023/05/23 10:03:35;;;;;;;;;;;;;;;12.08;95.66;101531.31;5037982;28;19991;-72
2023/05/23 10:06:16;;;;;;;;;;;;;;;12.09;95.59;101537.47;5080661;28;21243;-74
2023/05/23 10:08:42;;;;;;;;;;;;;;;12.14;94.11;101530.25;5082202;28;19932;-72
2023/05/23 10:11:15;;;;;;;;;;;;;;;12.25;95.03;101544.53;5050644;28;19935;-72
2023/05/23 10:13:44;;;;;;;;;;;;;;;12.13;94.17;101542.06;5087249;28;19930;-75
2023/05/23 10:16:22;;;;;;;;;;;;;;;12.10;93.84;101547.94;5080836;28;19997;-74
2023/05/23 10:18:51;;;;;;;;;;;;;;;12.09;93.68;101556.28;5085388;28;19937;-72
2023/05/23 10:21:23;;;;;;;;;;;;;;;12.13;93.89;101550.13;5053072;28;19989;-72
2023/05/23 10:23:49;;;;;;;;;;;;;;;12.09;94.10;101573.19;5083979;28;19942;-72
2023/05/23 10:26:16;;;;;;;;;;;;;;;12.01;93.31;101568.31;5068471;28;19999;-75
2023/05/23 10:28:42;;;;;;;;;;;;;;;12.02;93.09;101572.59;5086898;28;20008;-73
2023/05/23 10:31:09;;;;;;;;;;;;;;;11.84;92.59;101575.69;5068435;28;19942;-74
2023/05/23 10:33:39;;;;;;;;;;;;;;;11.93;93.61;101568.78;5067354;28;19930;-71
2023/05/23 10:36:12;;;;;;;;;;;;;;;11.91;91.11;101578.97;5067202;28;19962;-70
2023/05/23 10:38:43;;;;;;;;;;;;;;;12.03;92.73;101587.66;5084559;28;20019;-75
2023/05/23 10:41:09;;;;;;;;;;;;;;;12.15;94.22;101588.25;5052314;28;19940;-71
2023/05/23 10:43:53;;;;;;;;;;;;;;;12.10;91.32;101587.41;5050251;28;19930;-72
2023/05/23 10:46:20;;;;;;;;;;;;;;;12.05;92.50;101595.44;5080419;28;20066;-73
2023/05/23 10:48:46;;;;;;;;;;;;;;;12.09;91.85;101601.91;5069654;28;19937;-71
2023/05/23 10:51:13;;;;;;;;;;;;;;;12.17;90.61;101599.53;5064013;28;19985;-71
2023/05/23 10:53:43;;;;;;;;;;;;;;;12.20;89.50;101604.41;5064755;28;20718;-75
2023/05/23 10:56:10;;;;;;;;;;;;;;;12.18;90.65;101606.53;5066953;28;19955;-74
2023/05/23 10:58:37;;;;;;;;;;;;;;;12.10;88.06;101603.53;5052602;28;19945;-72
2023/05/23 11:01:05;;;;;;;;;;;;;;;12.04;87.55;101608.03;5066294;28;19938;-75
2023/05/23 11:03:34;;;;;;;;;;;;;;;12.10;87.33;101612.38;5061640;28;19933;-73
2023/05/23 11:06:00;;;;;;;;;;;;;;;12.02;88.24;101602.13;5082077;28;19969;-75
2023/05/23 11:08:26;;;;;;;;;;;;;;;11.88;87.28;101611.69;5065100;28;20080;-74
2023/05/23 11:10:52;;;;;;;;;;;;;;;11.94;88.07;101605.31;5036816;28;19938;-72
2023/05/23 11:13:21;;;;;;;;;;;;;;;12.05;88.28;101623.09;5051088;28;20336;-73
2023/05/23 11:15:48;;;;;;;;;;;;;;;12.13;87.50;101633.38;5079630;28;20074;-72
2023/05/23 11:18:25;;;;;;;;;;;;;;;12.18;87.81;101627.19;5063138;28;19938;-72
2023/05/23 11:20:52;;;;;;;;;;;;;;;12.46;83.57;101639.47;5048991;28;20036;-71
2023/05/23 11:23:18;;;;;;;;;;;;;;;12.97;81.42;101634.34;5049792;28;19940;-73
2023/05/23 11:25:47;;;;;;;;;;;;;;;14.00;80.55;101633.44;5058274;28;19969;-73
2023/05/23 11:28:13;;;;;;;;;;;;;;;14.01;78.26;101621.56;5049041;28;19934;-74
2023/05/23 11:30:39;;;;;;;;;;;;;;;13.77;79.46;101629.41;5084064;28;19940;-74
2023/05/23 11:33:08;;;;;;;;;;;;;;;13.75;80.51;101634.22;5051255;28;20426;-74
2023/05/23 11:35:34;;;;;;;;;;;;;;;13.63;78.47;101626.44;5084916;28;19948;-72
2023/05/23 11:38:01;;;;;;;;;;;;;;;13.83;77.62;101626.44;5050878;28;20599;-76
2023/05/23 11:40:33;;;;;;;;;;;;;;;14.07;75.19;101628.56;5064083;28;19937;-76
2023/05/23 11:42:59;;;;;;;;;;;;;;;14.05;79.17;101634.25;5068527;28;19931;-74
2023/05/23 11:45:26;;;;;;;;;;;;;;;13.65;77.33;101646.63;5078631;28;19951;-73
2023/05/23 11:47:51;;;;;;;;;;;;;;;13.71;81.27;101650.13;5063640;28;20417;-74
2023/05/23 11:50:19;;;;;;;;;;;;;;;13.34;76.87;101653.84;5034397;28;19929;-75
2023/05/23 11:52:50;;;;;;;;;;;;;;;13.33;77.85;101649.53;5069854;28;20005;-73
2023/05/23 11:55:22;;;;;;;;;;;;;;;13.18;79.12;101660.22;5069672;28;20034;-72
2023/05/23 11:57:48;;;;;;;;;;;;;;;13.17;77.82;101653.22;5055874;28;19954;-73
2023/05/23 12:00:14;;;;;;;;;;;;;;;13.50;78.72;101660.06;5070252;28;20007;-72
2023/05/23 12:02:40;;;;;;;;;;;;;;;13.34;77.74;101659.22;5048871;28;20043;-74
2023/05/23 12:05:06;;;;;;;;;;;;;;;13.61;76.59;101652.78;5055668;28;19961;-74
2023/05/23 12:07:32;;;;;;;;;;;;;;;13.75;73.08;101659.28;5058003;28;19961;-71
2023/05/23 12:10:04;;;;;;;;;;;;;;;14.02;71.33;101652.81;5085992;28;19936;-72
2023/05/23 12:12:30;;;;;;;;;;;;;;;14.32;72.44;101649.28;5066408;28;19964;-73
2023/05/23 12:14:56;;;;;;;;;;;;;;;15.20;72.04;101660.31;5069361;28;20042;-75
2023/05/23 12:17:21;;;;;;;;;;;;;;;15.02;71.72;101656.34;5037067;28;21067;-75
2023/05/23 12:19:48;;;;;;;;;;;;;;;14.29;70.08;101655.22;5052067;28;19936;-72
2023/05/23 12:22:13;;;;;;;;;;;;;;;14.35;71.91;101668.41;5071586;28;19953;-73
2023/05/23 12:24:44;;;;;;;;;;;;;;;14.19;71.70;101662.22;5085469;28;19930;-74
2023/05/23 12:27:09;;;;;;;;;;;;;;;14.54;67.14;101665.16;5068196;28;19953;-73
2023/05/23 12:29:36;;;;;;;;;;;;;;;15.19;68.31;101664.13;5088264;28;19932;-75
2023/05/23 12:32:03;;;;;;;;;;;;;;;15.04;67.43;101661.50;5085976;28;20389;-72
2023/05/23 12:34:28;;;;;;;;;;;;;;;15.75;64.52;101662.97;5050451;28;19943;-71
2023/05/23 12:36:57;;;;;;;;;;;;;;;15.81;66.10;101669.94;5055564;28;19953;-73
2023/05/23 12:39:26;;;;;;;;;;;;;;;16.28;67.71;101669.28;5071528;28;19944;-72